Time;durP1;ratioP1;P1;durP2;ratioP2;P2;SDS_P1;SDS_P2;PMS_P1;PMS_P2;Temp;Humidity;BMP_temperature;BMP_pressure;BME280_temperature;BME280_humidity;BME280_pressure;Samples;Min_cycle;Max_cycle;Signal;HPM_P1;HPM_P2
2022/01/09 00:01:10;;;;;;;49.67;2.40;;;;;;;0.55;55.27;93058.53;4948646;28;20186;-56
2022/01/09 00:03:36;;;;;;;3.50;2.92;;;;;;;0.73;54.67;93060.00;4959515;28;20561;-56
2022/01/09 00:06:01;;;;;;;9.30;3.20;;;;;;;0.56;56.76;93054.94;4960621;28;20110;-56
2022/01/09 00:08:26;;;;;;;13.18;3.63;;;;;;;0.52;58.47;93053.69;4959956;28;20119;-56
2022/01/09 00:10:52;;;;;;;6.03;2.58;;;;;;;0.46;56.31;93052.59;4967184;28;20383;-56
2022/01/09 00:13:17;;;;;;;5.70;3.00;;;;;;;0.74;57.78;93056.38;4965766;28;20476;-56
2022/01/09 00:15:43;;;;;;;6.85;2.92;;;;;;;0.64;55.99;93050.59;4958913;28;20083;-56
2022/01/09 00:18:08;;;;;;;129.55;4.50;;;;;;;0.80;55.47;93047.00;4960331;28;20332;-56
2022/01/09 00:20:34;;;;;;;20.20;3.60;;;;;;;0.68;55.87;93044.03;4960235;28;20719;-56
2022/01/09 00:22:59;;;;;;;6.40;2.70;;;;;;;0.77;57.17;93035.09;4959009;28;20137;-57
2022/01/09 00:25:25;;;;;;;10.68;3.17;;;;;;;0.61;57.31;93037.88;4959607;28;20111;-56
2022/01/09 00:27:51;;;;;;;27.92;3.10;;;;;;;0.90;57.17;93031.00;4960128;28;20336;-56
2022/01/09 00:30:17;;;;;;;19.40;2.60;;;;;;;0.92;56.14;93031.66;4959802;28;20507;-57
2022/01/09 00:32:43;;;;;;;14.65;3.17;;;;;;;0.58;58.40;93028.59;4959754;28;20110;-56
2022/01/09 00:35:09;;;;;;;21.60;3.88;;;;;;;0.33;59.04;93024.41;4974687;28;20562;-56
2022/01/09 00:37:34;;;;;;;52.58;2.60;;;;;;;0.58;55.41;93024.13;4971975;28;20107;-56
2022/01/09 00:40:00;;;;;;;110.43;4.55;;;;;;;0.39;56.18;93016.81;4959623;28;20547;-57
2022/01/09 00:42:25;;;;;;;63.20;3.70;;;;;;;0.53;55.36;93009.97;4960989;28;20083;-56
2022/01/09 00:44:50;;;;;;;7.70;2.55;;;;;;;0.74;57.71;93004.00;4959486;28;20587;-56
2022/01/09 00:47:16;;;;;;;80.78;4.13;;;;;;;0.85;58.11;92995.69;4960449;28;20087;-56
2022/01/09 00:49:41;;;;;;;5.40;2.88;;;;;;;0.01;58.48;93000.16;4960655;28;20118;-56
2022/01/09 00:52:07;;;;;;;52.30;3.17;;;;;;;0.53;55.13;93002.09;4969687;28;20283;-56
2022/01/09 00:54:32;;;;;;;6.55;3.55;;;;;;;0.63;58.77;92983.50;4959290;28;20098;-56
2022/01/09 00:56:57;;;;;;;5.93;2.35;;;;;;;0.77;57.23;92981.88;4956434;28;20133;-56
2022/01/09 00:59:23;;;;;;;6.93;2.80;;;;;;;0.77;57.77;92976.63;4947273;28;20164;-56
2022/01/09 01:01:48;;;;;;;5.07;2.15;;;;;;;0.63;56.66;92976.47;4959065;28;20118;-57
2022/01/09 01:04:14;;;;;;;3.35;2.53;;;;;;;0.66;56.71;92978.72;4959647;28;20123;-57
2022/01/09 01:06:39;;;;;;;3.88;2.30;;;;;;;0.68;56.90;92983.78;4951367;28;20131;-58
2022/01/09 01:09:04;;;;;;;3.72;2.90;;;;;;;0.42;56.78;92975.41;4953691;28;20623;-57
2022/01/09 01:11:30;;;;;;;4.20;3.38;;;;;;;0.80;58.99;92966.63;4959466;28;20087;-58
2022/01/09 01:13:55;;;;;;;2.55;2.22;;;;;;;0.79;56.22;92961.56;4954675;28;20524;-58
2022/01/09 01:16:21;;;;;;;3.78;2.70;;;;;;;0.98;55.12;92968.03;4956418;28;20166;-59
2022/01/09 01:18:46;;;;;;;3.83;2.92;;;;;;;0.78;58.22;92965.19;4948938;28;20071;-59
2022/01/09 01:21:12;;;;;;;3.75;2.90;;;;;;;0.90;56.57;92963.72;4959021;28;20107;-58
2022/01/09 01:23:37;;;;;;;3.28;2.63;;;;;;;1.07;57.25;92964.31;4959290;28;20415;-57
2022/01/09 01:26:03;;;;;;;2.80;2.60;;;;;;;1.28;55.56;92961.91;4958626;28;20526;-57
2022/01/09 01:28:29;;;;;;;1.50;1.40;;;;;;;0.28;54.19;92966.50;4959059;28;20572;-57
2022/01/09 01:30:54;;;;;;;3.03;2.50;;;;;;;0.84;55.39;92957.41;4958996;28;20089;-57
2022/01/09 01:33:20;;;;;;;3.17;2.35;;;;;;;1.02;56.72;92963.25;4949962;28;20107;-57
2022/01/09 01:35:45;;;;;;;2.03;1.92;;;;;;;1.01;53.20;92959.81;4950143;28;20092;-57
2022/01/09 01:38:10;;;;;;;2.72;2.50;;;;;;;1.05;57.07;92950.56;4954944;28;20808;-57
2022/01/09 01:40:36;;;;;;;4.43;2.38;;;;;;;1.22;56.31;92950.34;4958364;28;20107;-57
2022/01/09 01:43:01;;;;;;;1.35;1.25;;;;;;;1.07;55.81;92943.34;4958782;28;20656;-57
2022/01/09 01:45:27;;;;;;;3.25;2.38;;;;;;;1.27;56.25;92949.78;4958301;28;20307;-57
2022/01/09 01:47:52;;;;;;;2.00;1.80;;;;;;;1.48;54.32;92946.38;4958688;28;20102;-57
2022/01/09 01:50:19;;;;;;;2.15;1.95;;;;;;;1.41;53.77;92948.13;4963477;28;20130;-57
2022/01/09 01:52:47;;;;;;;2.20;2.05;;;;;;;1.30;56.16;92944.19;4961906;28;20526;-57
2022/01/09 01:55:13;;;;;;;1.15;1.15;;;;;;;0.94;54.05;92940.56;4958485;28;20083;-57
2022/01/09 01:57:40;;;;;;;3.83;2.85;;;;;;;1.31;56.66;92943.19;4958696;28;20125;-57
2022/01/09 02:00:06;;;;;;;2.50;2.30;;;;;;;1.22;56.16;92937.22;4950079;28;20099;-57
2022/01/09 02:02:31;;;;;;;2.80;2.03;;;;;;;0.77;58.04;92932.94;4958833;28;20584;-58
2022/01/09 02:04:57;;;;;;;1.17;1.08;;;;;;;-0.56;57.73;92942.09;4955775;28;20130;-57
2022/01/09 02:07:22;;;;;;;2.85;2.50;;;;;;;0.68;58.38;92936.66;4968115;28;20409;-57
2022/01/09 02:09:48;;;;;;;4.07;2.47;;;;;;;1.08;55.65;92939.72;4955261;28;20130;-57
2022/01/09 02:12:14;;;;;;;1.70;1.60;;;;;;;0.96;54.20;92941.22;4949557;28;20202;-57
2022/01/09 02:14:43;;;;;;;1.58;1.48;;;;;;;1.01;57.09;92932.78;4950809;28;20092;-57
2022/01/09 02:17:09;;;;;;;1.70;1.33;;;;;;;0.61;56.24;92933.13;4963495;28;20141;-57
2022/01/09 02:19:34;;;;;;;1.98;1.80;;;;;;;0.92;56.54;92929.47;4962625;28;20138;-57
2022/01/09 02:21:59;;;;;;;2.85;2.08;;;;;;;1.00;56.29;92929.34;4957289;28;20104;-57
2022/01/09 02:24:25;;;;;;;1.95;1.80;;;;;;;0.12;59.37;92940.53;4958465;28;20583;-57
2022/01/09 02:26:51;;;;;;;2.28;2.03;;;;;;;0.78;56.87;92934.53;4960816;28;20087;-57
2022/01/09 02:29:16;;;;;;;2.50;2.00;;;;;;;0.73;55.03;92931.66;4959988;28;20563;-57
2022/01/09 02:31:42;;;;;;;0.55;0.55;;;;;;;-0.92;56.51;92934.81;4960541;28;20094;-57
2022/01/09 02:34:08;;;;;;;2.08;1.80;;;;;;;0.27;58.84;92935.31;4955499;28;20143;-57
2022/01/09 02:36:34;;;;;;;1.38;1.00;;;;;;;0.70;55.95;92934.66;4959530;28;20373;-57
2022/01/09 02:38:59;;;;;;;2.95;2.60;;;;;;;1.04;57.67;92933.22;4963254;28;20079;-57
2022/01/09 02:41:25;;;;;;;0.73;0.73;;;;;;;0.03;53.79;92938.00;4965782;28;20483;-57
2022/01/09 02:43:50;;;;;;;2.20;2.00;;;;;;;0.74;55.94;92938.53;4960078;28;20102;-58
2022/01/09 02:46:51;;;;;;;0.95;0.93;;;;;;;-1.06;59.09;92946.78;4959651;28;20106;-57
2022/01/09 02:49:05;;;;;;;2.53;2.25;;;;;;;0.38;55.56;92929.59;4959154;28;20114;-57
2022/01/09 02:51:31;;;;;;;1.00;0.90;;;;;;;0.72;53.02;92937.91;4958464;28;20230;-57
2022/01/09 02:54:12;;;;;;;1.63;1.52;;;;;;;0.52;55.23;92942.88;4959017;28;20107;-57
2022/01/09 02:56:38;;;;;;;1.75;1.65;;;;;;;0.80;54.37;92950.06;4953947;28;20098;-57
2022/01/09 02:59:03;;;;;;;1.63;1.52;;;;;;;1.03;52.09;92951.75;4950062;28;20541;-57
2022/01/09 03:01:29;;;;;;;1.83;0.60;;;;;;;-0.37;53.76;92960.91;4953575;28;20115;-57
2022/01/09 03:03:54;;;;;;;1.35;1.30;;;;;;;-2.07;62.66;92964.56;4958022;28;20491;-58
2022/01/09 03:06:19;;;;;;;0.70;0.70;;;;;;;-0.08;54.76;92954.94;4957806;28;20091;-57
2022/01/09 03:08:45;;;;;;;0.68;0.68;;;;;;;0.39;53.44;92956.59;4956341;28;20111;-57
2022/01/09 03:11:10;;;;;;;1.75;0.60;;;;;;;0.29;52.78;92959.47;4956986;28;20086;-57
2022/01/09 03:13:36;;;;;;;0.30;0.30;;;;;;;0.22;53.88;92948.94;4956385;28;20391;-57
2022/01/09 03:16:01;;;;;;;0.52;0.52;;;;;;;0.14;54.14;92962.91;4956349;28;20081;-57
2022/01/09 03:18:27;;;;;;;0.60;0.60;;;;;;;0.51;52.91;92970.06;4954765;28;20113;-57
2022/01/09 03:20:52;;;;;;;0.40;0.40;;;;;;;-1.06;57.28;92971.09;4960066;28;20107;-57
2022/01/09 03:23:17;;;;;;;0.73;0.73;;;;;;;-1.28;58.20;92985.72;4962862;28;20075;-57
2022/01/09 03:25:43;;;;;;;0.50;0.50;;;;;;;-0.10;55.14;92983.06;4959014;28;20103;-57
2022/01/09 03:28:08;;;;;;;0.68;0.63;;;;;;;0.01;54.76;92984.47;4963538;28;20681;-57
2022/01/09 03:30:34;;;;;;;0.30;0.30;;;;;;;-1.80;60.14;92988.63;4964645;28;20075;-57
2022/01/09 03:32:59;;;;;;;0.43;0.43;;;;;;;-1.41;59.71;92986.25;4963859;28;20107;-57
2022/01/09 03:35:25;;;;;;;0.40;0.40;;;;;;;-2.94;67.48;93003.13;4964227;28;20083;-57
2022/01/09 03:37:51;;;;;;;0.30;0.30;;;;;;;-2.76;68.30;93010.81;4965337;28;20166;-57
2022/01/09 03:40:19;;;;;;;0.32;0.32;;;;;;;-3.67;76.61;93007.88;4964642;28;20107;-56
2022/01/09 03:42:46;;;;;;;0.20;0.20;;;;;;;-4.28;78.47;93021.59;4965345;28;20428;-56
2022/01/09 03:45:12;;;;;;;0.52;0.50;;;;;;;-4.14;74.17;93028.06;4964842;28;20138;-56
2022/01/09 03:47:38;;;;;;;0.30;0.30;;;;;;;-4.41;79.55;93019.41;4965343;28;20110;-56
2022/01/09 03:50:04;;;;;;;0.10;0.10;;;;;;;-4.37;80.62;93028.53;4964374;28;20107;-56
2022/01/09 03:52:30;;;;;;;0.73;0.38;;;;;;;-4.69;78.33;93032.44;4965840;28;20117;-55
2022/01/09 03:54:55;;;;;;;3.25;0.47;;;;;;;-5.02;76.73;93026.94;4964802;28;20449;-56
2022/01/09 03:57:21;;;;;;;0.10;0.10;;;;;;;-4.45;78.78;93037.06;4962723;28;20122;-56
2022/01/09 03:59:46;;;;;;;0.90;0.20;;;;;;;-4.14;75.53;93043.66;4955035;28;20107;-56
2022/01/09 04:02:12;;;;;;;0.10;0.10;;;;;;;-3.72;76.43;93051.72;4964684;28;20194;-57
2022/01/09 04:04:37;;;;;;;0.20;0.20;;;;;;;-3.49;75.46;93064.22;4964271;28;20107;-57
2022/01/09 04:07:03;;;;;;;1.95;1.10;;;;;;;-3.52;75.77;93047.94;4965036;28;20087;-56
2022/01/09 04:09:39;;;;;;;0.15;0.15;;;;;;;-3.36;75.95;93064.59;4964338;28;20126;-57
2022/01/09 04:12:15;;;;;;;3.25;0.43;;;;;;;-2.72;71.53;93057.38;4952544;28;20798;-57
2022/01/09 04:14:41;;;;;;;0.20;0.20;;;;;;;-2.29;72.09;93078.97;4948194;28;20078;-57
2022/01/09 04:17:11;;;;;;;0.22;0.22;;;;;;;-2.35;69.75;93069.16;4952667;28;20115;-57
2022/01/09 04:19:37;;;;;;;0.30;0.20;;;;;;;-1.92;68.99;93089.06;4959710;28;20083;-56
2022/01/09 04:22:02;;;;;;;0.10;0.10;;;;;;;-2.09;68.65;93078.66;4964418;28;20111;-57
2022/01/09 04:24:28;;;;;;;0.10;0.10;;;;;;;-1.98;67.94;93101.81;4964492;28;20107;-57
2022/01/09 04:26:53;;;;;;;0.60;0.45;;;;;;;-1.65;67.18;93094.94;4964274;28;20075;-57
2022/01/09 04:29:18;;;;;;;0.20;0.20;;;;;;;-1.73;69.43;93119.25;4967726;28;20107;-56
2022/01/09 04:31:44;;;;;;;0.52;0.52;;;;;;;-1.41;65.45;93093.28;4968607;28;20091;-57
2022/01/09 04:34:09;;;;;;;0.20;0.20;;;;;;;-1.84;69.19;93123.00;4964365;28;20111;-57
2022/01/09 04:36:35;;;;;;;0.10;0.10;;;;;;;-1.48;68.16;93127.88;4964283;28;20676;-57
2022/01/09 04:39:00;;;;;;;0.30;0.30;;;;;;;-1.11;64.73;93117.06;4962785;28;20095;-57
2022/01/09 04:41:25;;;;;;;0.10;0.10;;;;;;;-1.24;64.88;93135.84;4972579;28;20123;-56
2022/01/09 04:43:51;;;;;;;0.38;0.38;;;;;;;-0.80;64.50;93118.94;4983016;28;20099;-56
2022/01/09 04:46:28;;;;;;;0.10;0.10;;;;;;;-1.11;63.85;93125.69;4963902;28;20107;-56
2022/01/09 04:48:55;;;;;;;0.20;0.20;;;;;;;-1.23;64.83;93135.69;4963753;28;20416;-56
2022/01/09 04:51:21;;;;;;;0.25;0.25;;;;;;;-1.41;65.21;93141.09;4964243;28;20453;-57
2022/01/09 04:53:46;;;;;;;0.10;0.10;;;;;;;-1.19;66.47;93145.78;4963928;28;20110;-56
2022/01/09 04:56:11;;;;;;;0.08;0.08;;;;;;;-2.20;80.60;93155.41;4964694;28;20194;-56
2022/01/09 04:58:37;;;;;;;0.13;0.13;;;;;;;-1.70;80.70;93168.47;4962656;28;20456;-56
2022/01/09 05:01:02;;;;;;;0.52;0.35;;;;;;;-1.64;67.71;93161.81;4962444;28;20463;-56
2022/01/09 05:03:28;;;;;;;1.08;0.30;;;;;;;-1.48;69.15;93174.88;4964504;28;20146;-56
2022/01/09 05:05:53;;;;;;;0.22;0.20;;;;;;;-1.24;69.16;93181.06;4963906;28;20507;-57
2022/01/09 05:08:19;;;;;;;2.05;0.20;;;;;;;-0.87;66.58;93184.13;4963326;28;20115;-57
2022/01/09 05:10:44;;;;;;;0.17;0.17;;;;;;;-1.36;67.81;93200.63;4963626;28;20091;-57
2022/01/09 05:13:09;;;;;;;2.17;0.15;;;;;;;-2.15;72.16;93183.56;4974397;28;20303;-57
2022/01/09 05:15:35;;;;;;;0.20;0.20;;;;;;;-1.52;68.13;93207.47;4964201;28;20095;-57
2022/01/09 05:18:03;;;;;;;1.35;0.32;;;;;;;-1.55;68.17;93205.22;4963300;28;20107;-58
2022/01/09 05:20:29;;;;;;;5.03;0.87;;;;;;;-1.66;68.67;93224.59;4961508;28;20797;-58
2022/01/09 05:22:54;;;;;;;0.20;0.20;;;;;;;-1.86;68.20;93234.50;4958498;28;20079;-58
2022/01/09 05:25:20;;;;;;;0.30;0.20;;;;;;;-1.26;68.28;93245.66;4958175;28;20123;-59
2022/01/09 05:27:45;;;;;;;4.63;0.43;;;;;;;-1.35;66.14;93246.66;4963257;28;20600;-60
2022/01/09 05:30:11;;;;;;;0.55;0.17;;;;;;;-1.82;67.80;93264.53;4949282;28;20593;-59
2022/01/09 05:32:36;;;;;;;2.83;0.52;;;;;;;-1.45;68.67;93262.47;4961617;28;20095;-59
2022/01/09 05:35:02;;;;;;;1.10;0.65;;;;;;;-1.44;67.72;93274.53;4963491;28;20262;-58
2022/01/09 05:37:27;;;;;;;0.52;0.10;;;;;;;-1.27;65.81;93270.16;4968502;28;20106;-59
2022/01/09 05:39:53;;;;;;;3.63;0.17;;;;;;;-1.64;66.83;93279.22;4975179;28;20079;-58
2022/01/09 05:42:18;;;;;;;1.55;0.10;;;;;;;-1.76;68.86;93292.56;4963439;28;20102;-59
2022/01/09 05:44:44;;;;;;;1.55;0.10;;;;;;;-2.13;70.41;93291.94;4963331;28;20488;-60
2022/01/09 05:47:09;;;;;;;1.45;0.30;;;;;;;-1.72;68.58;93288.66;4974570;28;20083;-59
2022/01/09 05:49:35;;;;;;;3.10;0.22;;;;;;;-1.92;66.49;93292.53;4962321;28;20123;-59
2022/01/09 05:52:00;;;;;;;0.20;0.20;;;;;;;-1.31;67.30;93300.19;4963029;28;20084;-59
2022/01/09 05:54:25;;;;;;;1.48;0.10;;;;;;;-1.15;65.72;93309.81;4972737;28;20086;-59
2022/01/09 05:56:51;;;;;;;0.10;0.10;;;;;;;-1.22;67.25;93327.13;4966181;28;20099;-59
2022/01/09 05:59:18;;;;;;;0.10;0.10;;;;;;;-1.37;65.37;93321.69;4955865;28;20099;-60
2022/01/09 06:01:43;;;;;;;1.55;0.20;;;;;;;-1.71;64.94;93328.63;4962663;28;20580;-59
2022/01/09 06:04:08;;;;;;;1.00;0.28;;;;;;;-1.69;67.10;93323.25;4975921;28;20109;-60
2022/01/09 06:06:34;;;;;;;0.20;0.20;;;;;;;-1.62;66.11;93337.31;4962712;28;20095;-60
2022/01/09 06:08:59;;;;;;;3.95;0.50;;;;;;;-0.96;64.80;93329.63;4962466;28;20111;-61
2022/01/09 06:11:25;;;;;;;0.65;0.20;;;;;;;-0.96;64.08;93340.06;4970963;28;20570;-62
2022/01/09 06:13:50;;;;;;;1.20;0.52;;;;;;;-1.33;65.51;93349.13;4962363;28;20110;-61
2022/01/09 06:16:16;;;;;;;5.15;0.90;;;;;;;-1.98;65.79;93365.22;4960512;28;20045;-61
2022/01/09 06:18:41;;;;;;;6.30;1.00;;;;;;;-2.00;67.24;93367.16;4962859;28;20090;-62
2022/01/09 06:21:08;;;;;;;3.55;1.33;;;;;;;-1.97;66.23;93363.41;4974958;28;20619;-62
2022/01/09 06:23:33;;;;;;;4.38;1.60;;;;;;;-1.91;67.37;93378.44;4962719;28;20087;-62
2022/01/09 06:25:58;;;;;;;5.50;1.95;;;;;;;-2.14;68.07;93409.47;4962506;28;20306;-64
2022/01/09 06:28:24;;;;;;;8.73;2.15;;;;;;;-1.90;68.46;93380.06;4962271;28;20119;-64
2022/01/09 06:30:50;;;;;;;12.27;2.70;;;;;;;-1.58;66.12;93403.88;4962755;28;20087;-65
2022/01/09 06:33:15;;;;;;;9.02;2.42;;;;;;;-1.90;67.98;93408.75;4962443;28;20469;-65
2022/01/09 06:35:41;;;;;;;8.63;2.50;;;;;;;-1.48;65.57;93404.56;4961335;28;20607;-66
2022/01/09 06:38:06;;;;;;;7.55;2.33;;;;;;;-1.94;67.19;93432.72;4970113;28;20103;-65
2022/01/09 06:40:32;;;;;;;4.78;1.92;;;;;;;-1.63;66.45;93408.75;4962045;28;20598;-65
2022/01/09 06:42:57;;;;;;;4.72;2.10;;;;;;;-1.19;64.63;93407.72;4962532;28;20503;-63
2022/01/09 06:45:24;;;;;;;6.35;2.33;;;;;;;-1.26;65.85;93415.38;4967827;28;20130;-65
2022/01/09 06:47:51;;;;;;;4.03;1.80;;;;;;;-1.20;64.23;93434.81;4967351;28;20079;-65
2022/01/09 06:50:16;;;;;;;4.35;1.45;;;;;;;-1.93;64.66;93450.00;4962442;28;20759;-58
2022/01/09 06:52:42;;;;;;;4.40;1.50;;;;;;;-2.21;68.33;93444.94;4970177;28;20113;-58
2022/01/09 06:55:08;;;;;;;2.10;1.25;;;;;;;-2.35;66.66;93439.28;4972694;28;20078;-59
2022/01/09 06:57:33;;;;;;;5.20;2.10;;;;;;;-3.11;69.41;93470.84;4971588;28;20103;-58
2022/01/09 06:59:59;;;;;;;10.15;2.30;;;;;;;-3.53;71.10;93483.38;4959518;28;20158;-60
2022/01/09 07:02:24;;;;;;;7.78;2.95;;;;;;;-4.11;73.31;93476.59;4977356;28;20079;-61
2022/01/09 07:04:49;;;;;;;18.73;3.72;;;;;;;-5.02;77.38;93502.72;4965979;28;20468;-61
2022/01/09 07:07:15;;;;;;;18.50;4.63;;;;;;;-5.26;78.05;93485.72;4966281;28;20087;-62
2022/01/09 07:09:40;;;;;;;15.13;3.85;;;;;;;-5.37;79.66;93535.13;4972172;28;20611;-61
2022/01/09 07:12:07;;;;;;;12.43;4.03;;;;;;;-5.65;81.28;93543.47;4977140;28;20075;-60
2022/01/09 07:14:33;;;;;;;14.35;4.00;;;;;;;-5.76;81.70;93517.63;4971655;28;20574;-62
2022/01/09 07:16:58;;;;;;;14.02;4.40;;;;;;;-5.65;81.78;93543.47;4969251;28;20099;-63
2022/01/09 07:19:23;;;;;;;14.95;4.05;;;;;;;-5.49;81.66;93526.59;4980210;28;20075;-62
2022/01/09 07:21:49;;;;;;;21.58;4.88;;;;;;;-5.66;82.09;93533.22;4965779;28;20107;-62
2022/01/09 07:24:14;;;;;;;14.38;4.00;;;;;;;-5.65;81.86;93522.72;4965614;28;20515;-64
2022/01/09 07:26:40;;;;;;;20.63;5.10;;;;;;;-5.79;82.60;93541.19;4966381;28;20577;-63
2022/01/09 07:29:05;;;;;;;9.77;3.40;;;;;;;-5.65;82.10;93566.81;4975861;28;20123;-62
2022/01/09 07:31:30;;;;;;;15.07;4.20;;;;;;;-5.63;82.00;93577.06;4965622;28;20110;-62
2022/01/09 07:33:56;;;;;;;15.50;4.32;;;;;;;-5.58;81.25;93574.88;4976964;28;20711;-60
2022/01/09 07:36:21;;;;;;;16.13;4.32;;;;;;;-5.62;82.16;93573.50;4965347;28;20464;-61
2022/01/09 07:38:47;;;;;;;17.50;4.50;;;;;;;-5.64;81.88;93568.44;4969854;28;20091;-59
2022/01/09 07:41:14;;;;;;;16.63;4.28;;;;;;;-5.58;81.20;93600.81;4964464;28;20159;-58
2022/01/09 07:43:40;;;;;;;19.30;4.57;;;;;;;-5.51;80.85;93586.38;4975063;28;20106;-59
2022/01/09 07:46:05;;;;;;;12.10;3.35;;;;;;;-5.27;80.21;93597.44;4979575;28;20127;-59
2022/01/09 07:48:31;;;;;;;17.88;4.18;;;;;;;-5.45;80.76;93587.66;4975600;28;20130;-58
2022/01/09 07:50:56;;;;;;;16.00;4.75;;;;;;;-5.61;80.71;93632.19;4967310;28;20385;-59
2022/01/09 07:53:23;;;;;;;15.60;3.65;;;;;;;-5.54;81.14;93599.59;4953132;28;20492;-59
2022/01/09 07:55:51;;;;;;;12.50;3.30;;;;;;;-5.25;80.91;93624.06;4964690;28;20079;-59
2022/01/09 07:58:17;;;;;;;10.55;3.53;;;;;;;-5.26;79.51;93643.97;4965488;28;20107;-59
2022/01/09 08:00:43;;;;;;;15.18;3.92;;;;;;;-5.08;78.88;93626.06;4972427;28;20110;-58
2022/01/09 08:03:09;;;;;;;9.48;3.70;;;;;;;-4.78;77.73;93633.13;4968418;28;20083;-58
2022/01/09 08:05:34;;;;;;;16.30;4.28;;;;;;;-5.03;78.35;93654.19;4970775;28;20136;-58
2022/01/09 08:08:00;;;;;;;20.38;4.72;;;;;;;-5.51;80.91;93640.03;4966979;28;20487;-58
2022/01/09 08:10:25;;;;;;;14.98;3.15;;;;;;;-5.25;79.35;93660.38;4964476;28;20571;-58
2022/01/09 08:12:51;;;;;;;13.23;3.50;;;;;;;-5.05;79.02;93652.69;4963554;28;20122;-59
2022/01/09 08:15:16;;;;;;;12.90;3.05;;;;;;;-4.58;77.21;93652.97;4971544;28;20091;-57
2022/01/09 08:17:45;;;;;;;15.00;4.10;;;;;;;-4.79;77.67;93673.03;4966471;28;20568;-58
2022/01/09 08:20:12;;;;;;;9.55;3.35;;;;;;;-4.65;77.21;93672.69;4964377;28;20334;-57
2022/01/09 08:22:38;;;;;;;11.20;3.40;;;;;;;-4.78;77.92;93679.84;4964509;28;20197;-58
2022/01/09 08:25:05;;;;;;;21.45;3.97;;;;;;;-4.89;78.34;93678.19;4967183;28;20194;-58
2022/01/09 08:27:31;;;;;;;8.88;3.13;;;;;;;-4.80;78.06;93686.97;4964219;28;20087;-58
2022/01/09 08:29:56;;;;;;;9.63;3.90;;;;;;;-4.90;78.21;93690.34;4963672;28;20512;-57
2022/01/09 08:32:22;;;;;;;13.85;3.75;;;;;;;-4.40;76.09;93704.31;4965039;28;20114;-58
2022/01/09 08:34:47;;;;;;;12.38;4.15;;;;;;;-4.86;77.92;93706.50;4981895;28;20086;-58
2022/01/09 08:37:13;;;;;;;13.25;3.55;;;;;;;-4.87;77.70;93707.41;4965042;28;20166;-58
2022/01/09 08:39:39;;;;;;;12.88;3.22;;;;;;;-4.76;77.46;93704.72;4975159;28;20413;-57
2022/01/09 08:42:05;;;;;;;10.43;3.15;;;;;;;-4.72;77.65;93713.09;4962009;28;20114;-58
2022/01/09 08:44:30;;;;;;;13.77;3.65;;;;;;;-4.64;77.31;93718.47;4974286;28;20394;-57
2022/01/09 08:46:56;;;;;;;12.40;3.47;;;;;;;-4.65;77.33;93729.81;4963990;28;20264;-57
2022/01/09 08:49:21;;;;;;;10.52;3.75;;;;;;;-4.85;77.49;93723.69;4968507;28;20592;-57
2022/01/09 08:51:47;;;;;;;11.23;3.20;;;;;;;-4.72;77.65;93719.09;4969337;28;20123;-57
2022/01/09 08:54:12;;;;;;;15.20;4.10;;;;;;;-4.94;77.76;93730.47;4974573;28;20300;-58
2022/01/09 08:56:39;;;;;;;16.20;4.07;;;;;;;-4.97;78.09;93743.72;4979327;28;20103;-56
2022/01/09 08:59:05;;;;;;;12.65;3.92;;;;;;;-4.77;77.53;93744.66;4964442;28;20111;-57
2022/01/09 09:01:30;;;;;;;9.85;3.03;;;;;;;-4.71;76.96;93740.72;4971864;28;20519;-57
2022/01/09 09:03:55;;;;;;;14.98;3.70;;;;;;;-4.72;76.70;93745.06;4962953;28;20145;-57
2022/01/09 09:06:21;;;;;;;15.88;4.00;;;;;;;-4.77;76.71;93759.41;4972325;28;20118;-58
2022/01/09 09:08:46;;;;;;;13.70;4.25;;;;;;;-5.03;78.07;93762.41;4971695;28;20111;-57
2022/01/09 09:11:12;;;;;;;11.88;3.72;;;;;;;-5.18;78.69;93754.09;4970704;28;20079;-56
2022/01/09 09:13:38;;;;;;;14.82;3.85;;;;;;;-5.11;78.18;93782.03;4962899;28;20107;-57
2022/01/09 09:16:04;;;;;;;10.48;3.40;;;;;;;-5.02;78.15;93787.41;4962428;28;20075;-58
2022/01/09 09:18:29;;;;;;;9.48;3.08;;;;;;;-4.88;77.70;93768.09;4966667;28;20082;-57
2022/01/09 09:20:55;;;;;;;8.70;2.72;;;;;;;-4.70;77.26;93782.13;4971250;28;20658;-57
2022/01/09 09:23:20;;;;;;;13.05;3.80;;;;;;;-4.74;77.28;93787.72;4967412;28;20109;-57
2022/01/09 09:25:46;;;;;;;13.65;3.38;;;;;;;-4.79;77.50;93797.66;4974232;28;20117;-57
2022/01/09 09:28:11;;;;;;;6.70;2.97;;;;;;;-4.53;76.39;93779.88;4961376;28;20119;-57
2022/01/09 09:30:37;;;;;;;11.88;3.40;;;;;;;-4.94;77.42;93821.34;4972949;28;20083;-57
2022/01/09 09:33:05;;;;;;;11.68;3.70;;;;;;;-5.00;77.76;93819.28;4950358;28;20107;-57
2022/01/09 09:35:30;;;;;;;12.45;4.00;;;;;;;-5.05;78.58;93819.66;4968190;28;20086;-57
2022/01/09 09:37:56;;;;;;;11.27;3.45;;;;;;;-5.01;78.50;93826.22;4965893;28;20107;-57
2022/01/09 09:40:21;;;;;;;14.48;3.30;;;;;;;-4.68;76.81;93831.34;4971482;28;20264;-57
2022/01/09 09:42:47;;;;;;;8.52;2.65;;;;;;;-4.55;76.44;93836.34;4971785;28;20545;-57
2022/01/09 09:45:12;;;;;;;8.35;3.10;;;;;;;-4.25;73.90;93844.28;4973317;28;20126;-57
2022/01/09 09:47:38;;;;;;;10.95;3.38;;;;;;;-4.31;75.22;93832.63;4963076;28;20083;-58
2022/01/09 09:50:05;;;;;;;9.45;2.90;;;;;;;-4.23;74.94;93858.81;4961929;28;20655;-58
2022/01/09 09:52:30;;;;;;;10.82;3.67;;;;;;;-4.51;75.33;93857.69;4965025;28;20483;-58
2022/01/09 09:54:56;;;;;;;10.75;3.60;;;;;;;-4.46;75.21;93850.31;4961669;28;20079;-58
2022/01/09 09:57:22;;;;;;;15.43;3.30;;;;;;;-4.38;74.56;93863.50;4970208;28;20117;-58
2022/01/09 09:59:47;;;;;;;8.30;3.10;;;;;;;-4.56;75.51;93864.09;4970426;28;20117;-58
2022/01/09 10:02:15;;;;;;;7.72;2.67;;;;;;;-4.51;75.60;93857.69;4969549;28;20107;-58
2022/01/09 10:05:00;;;;;;;9.70;2.42;;;;;;;-4.19;73.89;93867.97;4973403;28;20571;-58
2022/01/09 10:07:26;;;;;;;6.00;2.95;;;;;;;-4.13;73.76;93853.66;4966075;28;20438;-57
2022/01/09 10:09:55;;;;;;;9.07;2.65;;;;;;;-4.27;74.08;93875.59;4961074;28;20126;-57
2022/01/09 10:12:28;;;;;;;10.07;3.40;;;;;;;-4.18;73.54;93866.19;4953458;28;20170;-56
2022/01/09 10:14:58;;;;;;;8.30;2.70;;;;;;;-4.38;74.91;93873.88;4948659;28;20868;-56
2022/01/09 10:17:24;;;;;;;9.85;3.00;;;;;;;-4.48;75.73;93868.63;4953703;28;20107;-56
2022/01/09 10:20:13;;;;;;;8.55;3.15;;;;;;;-4.42;74.78;93872.50;4956353;28;20082;-56
2022/01/09 10:22:49;;;;;;;9.38;3.30;;;;;;;-4.48;75.75;93883.44;4945336;28;20492;-57
2022/01/09 10:25:26;;;;;;;5.22;2.38;;;;;;;-4.37;75.29;93872.97;4957885;28;20109;-58
2022/01/09 10:28:09;;;;;;;9.20;3.08;;;;;;;-4.33;74.92;93887.34;4956965;28;20090;-57
2022/01/09 10:30:51;;;;;;;9.02;2.47;;;;;;;-4.09;74.09;93888.81;4958440;28;20075;-57
2022/01/09 10:33:21;;;;;;;10.25;3.28;;;;;;;-3.83;72.59;93904.00;4957549;28;20157;-58
2022/01/09 10:35:48;;;;;;;9.80;3.10;;;;;;;-3.79;72.55;93896.75;4959795;28;20613;-57
2022/01/09 10:38:21;;;;;;;6.22;2.15;;;;;;;-3.63;72.58;93908.44;4961215;28;20090;-57
2022/01/09 10:40:49;;;;;;;9.88;2.72;;;;;;;-3.84;72.69;93904.13;4961679;28;20504;-57
2022/01/09 10:43:16;;;;;;;5.63;2.00;;;;;;;-3.31;71.13;93903.03;4961849;28;20115;-58
2022/01/09 10:45:56;;;;;;;9.30;3.00;;;;;;;-3.73;71.70;93898.00;4948226;28;20111;-58
2022/01/09 10:48:22;;;;;;;9.32;2.53;;;;;;;-3.58;70.86;93914.06;4960953;28;20589;-57
2022/01/09 10:50:48;;;;;;;10.23;2.30;;;;;;;-3.18;70.19;93908.00;4959131;28;20643;-58
2022/01/09 10:53:18;;;;;;;8.40;2.42;;;;;;;-2.95;68.88;93912.94;4951092;28;20135;-57
2022/01/09 10:56:00;;;;;;;8.95;2.70;;;;;;;-2.63;68.70;93926.66;4958673;28;20170;-58
2022/01/09 10:58:27;;;;;;;7.70;1.95;;;;;;;-2.63;67.88;93919.66;4967570;28;20107;-58
2022/01/09 11:01:08;;;;;;;7.80;2.38;;;;;;;-2.43;67.64;93927.47;4964281;28;20153;-58
2022/01/09 11:03:34;;;;;;;5.95;1.67;;;;;;;-2.28;66.14;93929.63;4974744;28;20296;-58
2022/01/09 11:06:00;;;;;;;11.30;3.03;;;;;;;-2.36;66.42;93922.50;4961229;28;20690;-58
2022/01/09 11:08:25;;;;;;;7.78;2.20;;;;;;;-2.43;67.24;93937.06;4958504;28;20119;-58
2022/01/09 11:10:50;;;;;;;9.25;2.72;;;;;;;-2.83;67.27;93936.25;4971189;28;20535;-58
2022/01/09 11:13:16;;;;;;;9.82;2.60;;;;;;;-3.08;68.75;93938.41;4943998;28;20103;-58
2022/01/09 11:16:32;;;;;;;8.63;2.42;;;;;;;-3.37;69.59;93955.63;4962191;28;20082;-58
2022/01/09 11:18:27;;;;;;;7.32;2.65;;;;;;;-3.42;69.99;93943.03;4968757;28;20115;-58
2022/01/09 11:20:53;;;;;;;5.38;2.30;;;;;;;-3.35;69.86;93953.72;4961752;28;20130;-58
2022/01/09 11:23:18;;;;;;;7.63;2.60;;;;;;;-3.32;69.58;93960.44;4961201;28;20296;-58
2022/01/09 11:25:45;;;;;;;9.93;2.83;;;;;;;-3.15;69.58;93951.16;4959395;28;20107;-58
2022/01/09 11:28:24;;;;;;;8.30;2.70;;;;;;;-2.82;67.99;93953.53;4960486;28;20131;-58
2022/01/09 11:31:04;;;;;;;8.63;2.83;;;;;;;-2.42;67.09;93954.34;4960706;28;20083;-58